Time;durP1;ratioP1;P1;durP2;ratioP2;P2;SDS_P1;SDS_P2;PMS_P1;PMS_P2;Temp;Humidity;BMP_temperature;BMP_pressure;BME280_temperature;BME280_humidity;BME280_pressure;Samples;Min_cycle;Max_cycle;Signal;HPM_P1;HPM_P2
2021/08/28 00:02:23;;;;;;;13.63;12.33;;;15.70;99.90;;;;;;4936398;29;20490;-69
2021/08/28 00:04:52;;;;;;;14.57;13.33;;;15.70;99.90;;;;;;4935934;29;20450;-69
2021/08/28 00:07:20;;;;;;;14.70;13.30;;;15.70;99.90;;;;;;4919287;29;20483;-69
2021/08/28 00:09:49;;;;;;;14.40;13.10;;;15.70;99.90;;;;;;4936537;29;20490;-69
2021/08/28 00:12:18;;;;;;;13.73;12.63;;;15.70;99.90;;;;;;4910024;29;20430;-70
2021/08/28 00:14:46;;;;;;;15.23;13.93;;;15.70;99.90;;;;;;4935720;29;20489;-70
2021/08/28 00:17:14;;;;;;;27.63;13.43;;;15.70;99.90;;;;;;4918601;29;20504;-70
2021/08/28 00:19:44;;;;;;;13.37;12.27;;;15.70;99.90;;;;;;4918805;29;20203;-70
2021/08/28 00:22:13;;;;;;;15.93;14.73;;;15.70;99.90;;;;;;4918740;29;20495;-71
2021/08/28 00:24:41;;;;;;;13.40;12.30;;;15.70;99.90;;;;;;4935833;29;20451;-71
2021/08/28 00:27:10;;;;;;;14.23;12.93;;;15.70;99.90;;;;;;4918785;29;20821;-71
2021/08/28 00:29:39;;;;;;;13.93;12.73;;;15.80;99.90;;;;;;4918802;29;21010;-71
2021/08/28 00:32:08;;;;;;;15.57;14.20;;;15.70;99.90;;;;;;4936332;29;20526;-71
2021/08/28 00:34:36;;;;;;;18.03;16.43;;;15.70;99.90;;;;;;4916580;29;20951;-71
2021/08/28 00:37:04;;;;;;;14.83;13.50;;;15.70;99.90;;;;;;4936018;29;20529;-71
2021/08/28 00:39:32;;;;;;;16.13;14.80;;;15.70;99.90;;;;;;4936338;29;20542;-70
2021/08/28 00:42:00;;;;;;;21.13;19.53;;;15.70;99.90;;;;;;4918996;29;20426;-71
2021/08/28 00:44:28;;;;;;;14.60;13.33;;;15.70;99.90;;;;;;4936552;29;20440;-71
2021/08/28 00:46:58;;;;;;;16.93;15.43;;;15.70;99.90;;;;;;4937381;29;20475;-70
2021/08/28 00:49:26;;;;;;;17.50;15.90;;;15.70;99.90;;;;;;4939954;29;20550;-70
2021/08/28 00:51:55;;;;;;;14.00;12.70;;;15.70;99.90;;;;;;4921842;29;20540;-70
2021/08/28 00:54:23;;;;;;;12.60;11.50;;;15.70;99.90;;;;;;4922011;29;20228;-70
2021/08/28 00:56:51;;;;;;;13.68;12.38;;;15.70;99.90;;;;;;4939660;29;20459;-70
2021/08/28 00:59:20;;;;;;;16.83;15.23;;;15.70;99.90;;;;;;4939515;29;20564;-70
2021/08/28 01:01:50;;;;;;;17.20;15.60;;;15.70;99.90;;;;;;4939092;29;20444;-70
2021/08/28 01:04:21;;;;;;;16.93;15.33;;;15.70;99.90;;;;;;4938723;29;20481;-70
2021/08/28 01:07:01;;;;;;;17.37;15.73;;;15.70;99.90;;;;;;4922423;29;20542;-70
2021/08/28 01:09:58;;;;;;;13.93;12.73;;;15.70;99.90;;;;;;4931054;29;20957;-70
2021/08/28 01:13:00;;;;;;;17.73;16.20;;;15.70;99.90;;;;;;4901270;29;20483;-69
2021/08/28 01:15:30;;;;;;;15.47;13.93;;;15.70;99.90;;;;;;4884156;29;20466;-69
2021/08/28 01:17:59;;;;;;;15.17;13.83;;;15.70;99.90;;;;;;4884071;29;20948;-70
2021/08/28 01:20:37;;;;;;;17.83;16.10;;;15.70;99.90;;;;;;4900988;29;20425;-69
2021/08/28 01:23:26;;;;;;;15.70;14.30;;;15.70;99.90;;;;;;4901431;29;20491;-69
2021/08/28 01:26:18;;;;;;;13.50;12.10;;;15.70;99.90;;;;;;4915479;29;20449;-69
2021/08/28 01:28:54;;;;;;;16.07;14.50;;;15.80;99.90;;;;;;4921864;29;20202;-69
2021/08/28 01:31:25;;;;;;;13.68;12.30;;;15.80;99.90;;;;;;4921164;29;20453;-69
2021/08/28 01:33:54;;;;;;;14.10;12.70;;;15.80;99.90;;;;;;4921563;29;20253;-69
2021/08/28 01:36:24;;;;;;;15.47;13.97;;;15.80;99.90;;;;;;4921407;29;20553;-69
2021/08/28 01:39:03;;;;;;;18.73;17.13;;;15.80;99.90;;;;;;4921962;29;20451;-69
2021/08/28 01:41:32;;;;;;;14.00;12.57;;;15.80;99.90;;;;;;4921344;29;20524;-69
2021/08/28 01:44:03;;;;;;;15.07;13.60;;;15.80;99.90;;;;;;4921360;29;20445;-69
2021/08/28 01:46:37;;;;;;;17.03;15.33;;;15.80;99.90;;;;;;4921506;29;20422;-72
2021/08/28 01:49:07;;;;;;;15.00;13.70;;;15.80;99.90;;;;;;4919024;29;20514;-71
2021/08/28 01:51:37;;;;;;;15.30;13.77;;;15.80;99.90;;;;;;4921171;29;20432;-71
2021/08/28 01:54:19;;;;;;;14.83;13.33;;;15.80;99.90;;;;;;4883759;29;20488;-70
2021/08/28 01:56:49;;;;;;;14.23;12.83;;;15.80;99.90;;;;;;4922658;29;20479;-70
2021/08/28 01:59:19;;;;;;;15.27;13.77;;;15.80;99.90;;;;;;4919589;29;20484;-70
2021/08/28 02:02:07;;;;;;;14.63;13.47;;;15.80;99.90;;;;;;4938415;29;20214;-70
2021/08/28 02:04:46;;;;;;;15.70;14.10;;;15.80;99.90;;;;;;4920695;29;20958;-70
2021/08/28 02:07:21;;;;;;;13.63;12.33;;;15.80;99.90;;;;;;4920846;29;20283;-70
2021/08/28 02:09:53;;;;;;;16.07;14.67;;;15.80;99.90;;;;;;4921222;29;20490;-70
2021/08/28 02:12:29;;;;;;;16.43;14.83;;;15.80;99.90;;;;;;4918952;29;20430;-70
2021/08/28 02:15:02;;;;;;;14.87;13.43;;;15.80;99.90;;;;;;4920736;29;20994;-69
2021/08/28 02:17:34;;;;;;;17.20;15.80;;;15.70;99.90;;;;;;4920724;29;20904;-70
2021/08/28 02:20:05;;;;;;;14.60;13.40;;;15.70;99.90;;;;;;4920695;29;20486;-69
2021/08/28 02:23:03;;;;;;;16.37;15.03;;;15.70;99.90;;;;;;4934489;29;20442;-70
2021/08/28 02:25:42;;;;;;;17.53;15.43;;;15.70;99.90;;;;;;4937746;29;20793;-69
2021/08/28 02:28:14;;;;;;;17.40;15.67;;;15.70;99.90;;;;;;4920366;29;20483;-69
2021/08/28 02:30:45;;;;;;;18.73;17.23;;;15.70;99.90;;;;;;4920442;29;20430;-69
2021/08/28 02:33:17;;;;;;;12.30;11.20;;;15.70;99.90;;;;;;4920084;29;20505;-69
2021/08/28 02:35:55;;;;;;;14.33;13.13;;;15.70;99.90;;;;;;4921251;29;20230;-69
2021/08/28 02:38:24;;;;;;;11.30;10.23;;;15.70;99.90;;;;;;4901472;29;20435;-69
2021/08/28 02:40:55;;;;;;;13.57;12.33;;;15.70;99.90;;;;;;4905385;29;20772;-70
2021/08/28 02:43:24;;;;;;;17.53;16.10;;;15.70;99.90;;;;;;4920220;29;20479;-69
2021/08/28 02:45:54;;;;;;;12.93;11.83;;;15.70;99.90;;;;;;4921106;29;20438;-70
2021/08/28 02:48:29;;;;;;;13.90;12.80;;;15.70;99.90;;;;;;4920126;29;20427;-70
2021/08/28 02:51:01;;;;;;;13.77;12.67;;;15.70;99.90;;;;;;4920153;29;20495;-69
2021/08/28 02:53:31;;;;;;;13.53;12.23;;;15.70;99.90;;;;;;4920020;29;20446;-69
2021/08/28 02:56:02;;;;;;;15.03;13.83;;;15.70;99.90;;;;;;4919843;29;20474;-69
2021/08/28 02:58:33;;;;;;;14.67;13.40;;;15.70;99.90;;;;;;4917681;29;21058;-70
2021/08/28 03:01:03;;;;;;;14.87;13.63;;;15.60;99.90;;;;;;4919908;29;20488;-69
2021/08/28 03:03:34;;;;;;;20.07;14.53;;;15.60;99.90;;;;;;4919756;29;20476;-69
2021/08/28 03:06:06;;;;;;;14.60;13.37;;;15.60;99.90;;;;;;4919768;29;20466;-69
2021/08/28 03:08:40;;;;;;;11.93;10.63;;;15.70;99.90;;;;;;4919616;29;20795;-69
2021/08/28 03:11:09;;;;;;;13.30;12.13;;;15.70;99.90;;;;;;4919623;29;20204;-69
2021/08/28 03:13:38;;;;;;;12.13;10.90;;;15.70;99.90;;;;;;4919027;29;20810;-70
2021/08/28 03:16:07;;;;;;;12.60;11.47;;;15.80;99.90;;;;;;4919871;29;20795;-69
2021/08/28 03:18:41;;;;;;;16.43;15.23;;;15.80;99.90;;;;;;4919577;29;20534;-69
2021/08/28 03:21:13;;;;;;;16.93;15.37;;;15.70;99.90;;;;;;4919516;29;20432;-69
2021/08/28 03:23:44;;;;;;;13.20;12.10;;;15.70;99.90;;;;;;4919516;29;20481;-69
2021/08/28 03:26:16;;;;;;;14.97;13.73;;;15.70;99.90;;;;;;4919569;29;20487;-69
2021/08/28 03:28:45;;;;;;;17.63;13.90;;;15.70;99.90;;;;;;4935957;29;20448;-69
2021/08/28 03:31:16;;;;;;;15.47;13.97;;;15.70;99.90;;;;;;4920013;29;20448;-69
2021/08/28 03:33:47;;;;;;;14.67;13.20;;;15.70;99.90;;;;;;4919269;29;20482;-69
2021/08/28 03:36:17;;;;;;;14.63;13.37;;;15.70;99.90;;;;;;4919320;29;20474;-69
2021/08/28 03:38:46;;;;;;;14.00;12.90;;;15.70;99.90;;;;;;4919631;29;20485;-69
2021/08/28 03:41:16;;;;;;;14.77;13.30;;;15.70;99.90;;;;;;4919068;29;20448;-70
2021/08/28 03:43:46;;;;;;;13.03;12.00;;;15.70;99.90;;;;;;4919292;29;20222;-70
2021/08/28 03:46:15;;;;;;;16.53;15.13;;;15.70;99.90;;;;;;4919172;29;20430;-69
2021/08/28 03:48:46;;;;;;;12.02;10.65;;;15.70;99.90;;;;;;4918378;29;20526;-69
2021/08/28 03:51:15;;;;;;;13.83;11.70;;;15.80;99.90;;;;;;4918260;29;20286;-70
2021/08/28 03:53:43;;;;;;;11.40;10.37;;;15.80;99.90;;;;;;4935272;29;20471;-69
2021/08/28 03:56:11;;;;;;;13.63;12.47;;;15.80;99.90;;;;;;4918820;29;20570;-69
2021/08/28 03:58:39;;;;;;;14.20;12.73;;;15.70;99.90;;;;;;4919103;29;20422;-69
2021/08/28 04:01:08;;;;;;;16.27;14.53;;;15.70;99.90;;;;;;4936072;29;20511;-69
2021/08/28 04:03:40;;;;;;;15.53;14.13;;;15.70;99.90;;;;;;4918995;29;20483;-69
2021/08/28 04:06:10;;;;;;;15.33;13.93;;;15.70;99.90;;;;;;4918946;29;20725;-69
2021/08/28 04:08:41;;;;;;;15.37;14.00;;;15.70;99.90;;;;;;4919049;29;20438;-69
2021/08/28 04:11:09;;;;;;;15.00;13.80;;;15.70;99.90;;;;;;4936136;29;20422;-69
2021/08/28 04:13:39;;;;;;;16.97;15.60;;;15.70;99.90;;;;;;4918871;29;20448;-69
2021/08/28 04:16:07;;;;;;;13.17;11.87;;;15.70;99.90;;;;;;4918533;29;20435;-69
2021/08/28 04:18:42;;;;;;;14.00;12.77;;;15.70;99.90;;;;;;4916788;29;20546;-69
2021/08/28 04:21:30;;;;;;;14.30;12.90;;;15.70;99.90;;;;;;4936830;29;20446;-70
2021/08/28 04:23:58;;;;;;;15.23;13.97;;;15.70;99.90;;;;;;4923407;29;20270;-69
2021/08/28 04:27:05;;;;;;;14.73;13.33;;;15.70;99.90;;;;;;4923431;29;20418;-69
2021/08/28 04:29:34;;;;;;;15.17;13.77;;;15.70;99.90;;;;;;4922869;29;20473;-70
2021/08/28 04:32:03;;;;;;;14.50;13.20;;;15.70;99.90;;;;;;4922694;29;20433;-69
2021/08/28 04:34:32;;;;;;;18.53;16.70;;;15.70;99.90;;;;;;4921505;29;20545;-70
2021/08/28 04:37:02;;;;;;;14.63;13.13;;;15.70;99.90;;;;;;4922480;29;20485;-70
2021/08/28 04:39:35;;;;;;;16.57;15.17;;;15.70;99.90;;;;;;4922536;29;20518;-69
2021/08/28 04:42:04;;;;;;;18.70;17.00;;;15.70;99.90;;;;;;4922425;29;20459;-69
2021/08/28 04:44:32;;;;;;;16.87;15.47;;;15.70;99.90;;;;;;4922440;29;20471;-69
2021/08/28 04:47:01;;;;;;;15.20;13.90;;;15.70;99.90;;;;;;4922383;29;20520;-69
2021/08/28 04:49:29;;;;;;;17.60;16.00;;;15.70;99.90;;;;;;4922246;29;20486;-69
2021/08/28 04:52:21;;;;;;;17.60;16.03;;;15.70;99.90;;;;;;4931705;29;20475;-69
2021/08/28 04:54:50;;;;;;;16.70;15.20;;;15.60;99.90;;;;;;4922183;29;20451;-69
2021/08/28 04:57:18;;;;;;;13.40;12.10;;;15.60;99.90;;;;;;4921005;29;20530;-69
2021/08/28 04:59:49;;;;;;;14.90;13.60;;;15.70;99.90;;;;;;4921683;29;20207;-69
2021/08/28 05:02:49;;;;;;;15.07;13.77;;;15.70;99.90;;;;;;4921577;29;20462;-69
2021/08/28 05:05:18;;;;;;;14.63;13.23;;;15.70;99.90;;;;;;4939139;29;20455;-69
2021/08/28 05:07:50;;;;;;;15.23;13.93;;;15.70;99.90;;;;;;4921965;29;20921;-69
2021/08/28 05:10:20;;;;;;;17.53;16.00;;;15.70;99.90;;;;;;4922057;29;20944;-68
2021/08/28 05:12:49;;;;;;;16.00;14.70;;;15.70;99.90;;;;;;4921850;29;20455;-69
2021/08/28 05:15:19;;;;;;;15.53;14.27;;;15.60;99.90;;;;;;4921642;29;20434;-69
2021/08/28 05:17:58;;;;;;;15.90;14.43;;;15.60;99.90;;;;;;4921649;29;20828;-69
2021/08/28 05:20:28;;;;;;;14.40;13.07;;;15.60;99.90;;;;;;4919423;29;20889;-69
2021/08/28 05:23:16;;;;;;;14.97;13.73;;;15.60;99.90;;;;;;4939095;29;20578;-69
2021/08/28 05:26:22;;;;;;;11.50;10.40;;;15.60;99.90;;;;;;4923289;29;20554;-69
2021/08/28 05:28:51;;;;;;;11.90;10.70;;;15.70;99.90;;;;;;4921714;29;20459;-69
2021/08/28 05:31:19;;;;;;;11.38;10.27;;;15.80;99.90;;;;;;4920704;29;20449;-70
2021/08/28 05:33:48;;;;;;;12.13;10.90;;;15.80;99.90;;;;;;4921098;29;20215;-69
2021/08/28 05:36:26;;;;;;;16.40;14.93;;;15.80;99.90;;;;;;4921570;29;20445;-70
2021/08/28 05:39:13;;;;;;;14.03;12.83;;;15.80;99.90;;;;;;4938954;29;20458;-70
2021/08/28 05:41:42;;;;;;;14.97;13.73;;;15.80;99.90;;;;;;4920056;29;20454;-70
2021/08/28 05:44:10;;;;;;;15.13;14.03;;;15.80;99.90;;;;;;4921048;29;20468;-70
2021/08/28 05:46:41;;;;;;;13.57;12.40;;;15.80;99.90;;;;;;4921058;29;20967;-69
2021/08/28 05:49:20;;;;;;;15.23;13.93;;;15.80;99.90;;;;;;4921607;29;20961;-70
2021/08/28 05:51:56;;;;;;;13.57;12.50;;;15.80;99.90;;;;;;4922127;29;20423;-69
2021/08/28 05:54:26;;;;;;;13.70;12.40;;;15.80;99.90;;;;;;4920965;29;20444;-70
2021/08/28 05:56:54;;;;;;;15.40;13.97;;;15.80;99.90;;;;;;4921074;29;20210;-69
2021/08/28 05:59:22;;;;;;;15.40;14.20;;;15.80;99.90;;;;;;4938652;29;20466;-69
2021/08/28 06:01:52;;;;;;;13.07;11.88;;;15.80;99.90;;;;;;4918029;29;20930;-69
2021/08/28 06:04:21;;;;;;;13.40;12.20;;;15.90;99.90;;;;;;4921331;29;20242;-69
2021/08/28 06:07:13;;;;;;;13.73;12.63;;;15.90;99.90;;;;;;4873365;29;20466;-70
2021/08/28 06:09:55;;;;;;;13.60;12.30;;;15.90;99.90;;;;;;4912048;29;20458;-70
2021/08/28 06:12:55;;;;;;;23.97;20.17;;;15.90;99.90;;;;;;4906184;29;20437;-69
2021/08/28 06:15:49;;;;;;;17.00;15.60;;;15.90;99.90;;;;;;4937951;29;20463;-69
2021/08/28 06:18:18;;;;;;;16.83;14.07;;;15.90;99.90;;;;;;4936621;29;20489;-69
2021/08/28 06:20:46;;;;;;;15.97;14.50;;;15.90;99.90;;;;;;4938274;29;20443;-69
2021/08/28 06:23:14;;;;;;;17.27;15.93;;;16.00;99.90;;;;;;4920812;29;20462;-69
2021/08/28 06:26:03;;;;;;;17.07;15.73;;;16.00;99.90;;;;;;4935594;29;20433;-70
2021/08/28 06:28:32;;;;;;;17.33;15.93;;;16.10;99.90;;;;;;4921016;29;20793;-69
2021/08/28 06:31:00;;;;;;;12.35;11.25;;;16.10;99.90;;;;;;4919656;29;20978;-69
2021/08/28 06:33:29;;;;;;;13.67;12.43;;;16.30;99.90;;;;;;4920662;29;20224;-69
2021/08/28 06:35:57;;;;;;;12.60;11.40;;;16.30;99.90;;;;;;4937208;29;20435;-69
2021/08/28 06:38:46;;;;;;;14.70;13.40;;;16.30;99.90;;;;;;4927906;29;20224;-69
2021/08/28 06:41:35;;;;;;;20.60;18.90;;;16.30;99.90;;;;;;4908086;29;20456;-69
2021/08/28 06:44:23;;;;;;;16.10;14.70;;;16.30;99.90;;;;;;4937239;29;20559;-69
2021/08/28 06:47:12;;;;;;;16.73;15.23;;;16.30;99.90;;;;;;4917332;29;20452;-69
2021/08/28 06:50:10;;;;;;;17.23;15.80;;;16.20;99.90;;;;;;4885722;29;20982;-70
2021/08/28 06:52:56;;;;;;;19.60;17.83;;;16.20;99.90;;;;;;4937509;29;20433;-69
2021/08/28 06:55:43;;;;;;;21.17;18.93;;;16.20;99.90;;;;;;4935199;29;20413;-70
2021/08/28 06:58:31;;;;;;;20.27;18.33;;;16.20;99.90;;;;;;4927602;29;20454;-70
2021/08/28 07:01:27;;;;;;;18.73;16.83;;;16.20;99.90;;;;;;4920070;29;20422;-69
2021/08/28 07:04:15;;;;;;;16.90;15.30;;;16.20;99.90;;;;;;4937008;29;20435;-69
2021/08/28 07:07:02;;;;;;;18.30;16.80;;;16.20;99.90;;;;;;4937554;29;20191;-69
2021/08/28 07:09:31;;;;;;;21.10;19.30;;;16.20;99.90;;;;;;4919831;29;20432;-69
2021/08/28 07:12:02;;;;;;;19.47;17.67;;;16.30;99.90;;;;;;4937477;29;20657;-69
2021/08/28 07:14:33;;;;;;;19.70;18.00;;;16.30;99.90;;;;;;4920096;29;20482;-70
2021/08/28 07:17:02;;;;;;;21.23;19.10;;;16.20;99.90;;;;;;4920023;29;20981;-70
2021/08/28 07:19:30;;;;;;;20.93;19.23;;;16.20;99.90;;;;;;4920485;29;21035;-71
2021/08/28 07:21:58;;;;;;;18.70;17.10;;;16.20;99.90;;;;;;4919660;29;20430;-70
2021/08/28 07:24:28;;;;;;;21.73;19.10;;;16.20;99.90;;;;;;4917148;29;21017;-70
2021/08/28 07:26:57;;;;;;;18.23;16.63;;;16.30;99.90;;;;;;4917429;29;20460;-71
2021/08/28 07:29:47;;;;;;;17.50;16.00;;;16.20;99.90;;;;;;4886171;29;20417;-71
2021/08/28 07:32:16;;;;;;;23.60;21.20;;;16.20;99.90;;;;;;4882803;29;20457;-70
2021/08/28 07:34:44;;;;;;;20.80;19.00;;;16.30;99.90;;;;;;4882486;29;20495;-70
2021/08/28 07:37:13;;;;;;;48.03;22.40;;;16.30;99.90;;;;;;4887200;29;20431;-71
2021/08/28 07:39:41;;;;;;;13.50;12.20;;;16.30;99.90;;;;;;4919217;29;20816;-70
2021/08/28 07:42:10;;;;;;;15.13;13.93;;;16.40;99.90;;;;;;4918215;29;20725;-70
2021/08/28 07:44:38;;;;;;;13.82;12.45;;;16.40;99.90;;;;;;4919460;29;20447;-70
2021/08/28 07:47:08;;;;;;;11.73;10.63;;;16.50;99.90;;;;;;4920084;29;20267;-71
2021/08/28 07:49:37;;;;;;;12.97;11.77;;;16.50;99.90;;;;;;4919964;29;20527;-70
2021/08/28 07:52:05;;;;;;;13.80;12.70;;;16.50;99.90;;;;;;4920088;29;20930;-70
2021/08/28 07:54:34;;;;;;;17.20;15.80;;;16.50;99.90;;;;;;4919937;29;20446;-71
2021/08/28 07:57:03;;;;;;;15.40;13.97;;;16.50;99.90;;;;;;4919090;29;20422;-71
2021/08/28 07:59:32;;;;;;;13.97;12.70;;;16.60;99.90;;;;;;4920018;29;20505;-71
2021/08/28 08:02:01;;;;;;;15.60;14.30;;;16.60;99.90;;;;;;4907784;29;20437;-71
2021/08/28 08:04:31;;;;;;;16.60;14.90;;;16.60;99.90;;;;;;4920057;29;20454;-71
2021/08/28 08:07:34;;;;;;;17.30;15.60;;;16.60;99.90;;;;;;4878336;29;20421;-71
2021/08/28 08:10:40;;;;;;;21.43;18.83;;;16.70;99.90;;;;;;4896937;29;20424;-71
2021/08/28 08:13:27;;;;;;;10.85;9.85;;;16.70;99.90;;;;;;4896227;29;20445;-70
2021/08/28 08:16:14;;;;;;;14.80;13.53;;;16.80;99.90;;;;;;4926345;29;20302;-70
2021/08/28 08:19:08;;;;;;;17.07;14.00;;;16.90;99.90;;;;;;4920293;29;20479;-70
2021/08/28 08:22:06;;;;;;;14.93;13.43;;;16.90;99.90;;;;;;4936146;29;20451;-70
2021/08/28 08:24:46;;;;;;;18.13;16.77;;;17.00;99.90;;;;;;4919507;29;20482;-70
2021/08/28 08:27:33;;;;;;;15.77;14.43;;;17.00;99.90;;;;;;4934109;29;20465;-70
2021/08/28 08:30:23;;;;;;;16.63;15.20;;;17.00;99.90;;;;;;4918753;29;20613;-71
2021/08/28 08:32:58;;;;;;;19.40;15.93;;;17.10;99.90;;;;;;4918688;29;20529;-71
2021/08/28 08:35:31;;;;;;;46.30;22.27;;;17.10;99.90;;;;;;4918941;29;20996;-71
2021/08/28 08:38:02;;;;;;;19.07;17.23;;;17.10;99.90;;;;;;4918579;29;20876;-72
2021/08/28 08:40:30;;;;;;;19.57;17.73;;;17.10;99.90;;;;;;4918548;29;20827;-73
2021/08/28 08:43:01;;;;;;;15.73;14.63;;;17.20;99.90;;;;;;4918805;29;20538;-71
2021/08/28 08:45:30;;;;;;;13.65;12.35;;;17.20;99.90;;;;;;4918713;29;20535;-71
2021/08/28 08:47:59;;;;;;;19.87;18.03;;;17.20;99.90;;;;;;4935998;29;20195;-71
2021/08/28 08:50:29;;;;;;;14.00;13.00;;;17.20;99.90;;;;;;4918203;29;20451;-71
2021/08/28 08:53:03;;;;;;;7.97;7.18;;;17.30;99.90;;;;;;4917508;29;20798;-71
2021/08/28 08:55:38;;;;;;;10.90;10.10;;;17.40;99.90;;;;;;4918624;29;20760;-71
2021/08/28 08:58:15;;;;;;;10.87;10.13;;;17.40;99.90;;;;;;4918526;29;20572;-71
2021/08/28 09:00:51;;;;;;;16.23;14.77;;;17.40;99.90;;;;;;4918851;29;20448;-71
2021/08/28 09:03:27;;;;;;;14.63;13.30;;;17.40;99.90;;;;;;4936058;29;20467;-72
2021/08/28 09:05:59;;;;;;;16.47;15.00;;;17.50;99.90;;;;;;4918898;29;20448;-71
2021/08/28 09:08:33;;;;;;;16.23;14.83;;;17.50;99.90;;;;;;4920569;29;20965;-71
2021/08/28 09:11:01;;;;;;;17.93;16.43;;;17.50;99.90;;;;;;4938988;29;20987;-71
2021/08/28 09:13:29;;;;;;;15.67;14.23;;;17.50;99.90;;;;;;4936764;29;20510;-71
2021/08/28 09:16:02;;;;;;;20.47;19.10;;;17.50;99.90;;;;;;4938842;29;20432;-71
2021/08/28 09:18:50;;;;;;;16.75;15.25;;;17.50;99.90;;;;;;4938941;29;20445;-71
2021/08/28 09:21:21;;;;;;;17.70;15.10;;;17.50;99.90;;;;;;4921776;29;20200;-71
2021/08/28 09:23:58;;;;;;;16.07;14.43;;;17.50;99.90;;;;;;4921594;29;20893;-71
2021/08/28 09:26:27;;;;;;;8.45;7.65;;;17.50;99.90;;;;;;4937542;29;20445;-71
2021/08/28 09:28:56;;;;;;;11.67;10.60;;;17.60;99.90;;;;;;4938691;29;20662;-71
2021/08/28 09:31:41;;;;;;;11.60;10.70;;;17.60;99.90;;;;;;4938861;29;20427;-71
2021/08/28 09:34:19;;;;;;;13.77;12.63;;;17.60;99.90;;;;;;4936472;29;20526;-71
2021/08/28 09:36:57;;;;;;;14.77;13.53;;;17.60;99.90;;;;;;4921461;29;20549;-71
2021/08/28 09:39:47;;;;;;;15.30;13.87;;;17.70;99.90;;;;;;4938634;29;20468;-71
2021/08/28 09:42:19;;;;;;;13.00;11.70;;;17.70;99.90;;;;;;4938593;29;20428;-71
2021/08/28 09:44:49;;;;;;;13.73;12.70;;;17.70;99.90;;;;;;4938649;29;20571;-70
2021/08/28 09:47:19;;;;;;;14.57;13.03;;;17.60;99.90;;;;;;4938319;29;20439;-71
2021/08/28 09:49:49;;;;;;;12.37;11.30;;;17.70;99.90;;;;;;4938304;29;20414;-71
2021/08/28 09:52:20;;;;;;;4.75;4.25;;;17.60;99.90;;;;;;4937508;29;20857;-71
2021/08/28 09:54:50;;;;;;;9.13;8.50;;;17.70;99.90;;;;;;4921103;29;20223;-71
2021/08/28 09:57:19;;;;;;;8.93;8.23;;;17.60;99.90;;;;;;4921256;29;20459;-71
2021/08/28 09:59:47;;;;;;;10.47;9.63;;;17.60;99.90;;;;;;4938381;29;20861;-72
2021/08/28 10:02:17;;;;;;;10.90;10.07;;;17.60;99.90;;;;;;4938061;29;20509;-72
2021/08/28 10:04:50;;;;;;;11.10;10.40;;;17.50;99.90;;;;;;4938118;29;20491;-71
2021/08/28 10:07:21;;;;;;;15.13;11.73;;;17.50;99.90;;;;;;4938323;29;20439;-71
2021/08/28 10:09:55;;;;;;;11.93;11.03;;;17.50;99.90;;;;;;4938587;29;20421;-71
2021/08/28 10:12:24;;;;;;;15.67;14.63;;;17.50;99.90;;;;;;4920837;29;20459;-71
2021/08/28 10:14:54;;;;;;;13.83;12.87;;;17.50;99.90;;;;;;4938109;29;20494;-72
2021/08/28 10:17:24;;;;;;;16.57;14.83;;;17.50;99.90;;;;;;4938283;29;20439;-71
2021/08/28 10:19:54;;;;;;;13.07;12.17;;;17.60;99.90;;;;;;4917635;29;20467;-71
2021/08/28 10:22:25;;;;;;;13.70;12.90;;;17.60;99.90;;;;;;4937702;29;21022;-71
2021/08/28 10:24:57;;;;;;;4.70;4.20;;;17.60;99.90;;;;;;4920037;29;20559;-72
2021/08/28 10:27:27;;;;;;;8.13;7.63;;;17.70;99.90;;;;;;4920601;29;20444;-72
2021/08/28 10:29:56;;;;;;;7.00;6.40;;;17.80;99.90;;;;;;4937898;29;20469;-71
2021/08/28 10:32:24;;;;;;;12.40;11.60;;;17.80;99.90;;;;;;4920540;29;20204;-71
2021/08/28 10:34:53;;;;;;;13.70;12.63;;;17.80;99.90;;;;;;4940494;29;20476;-71
2021/08/28 10:37:21;;;;;;;10.47;9.77;;;17.70;99.90;;;;;;4923615;29;20452;-71
2021/08/28 10:39:52;;;;;;;13.13;11.80;;;17.70;99.90;;;;;;4922503;29;20996;-71
2021/08/28 10:42:22;;;;;;;10.73;9.87;;;17.70;99.90;;;;;;4923027;29;20466;-71
2021/08/28 10:44:51;;;;;;;12.73;11.90;;;17.70;99.90;;;;;;4940731;29;20443;-71
2021/08/28 10:47:27;;;;;;;17.87;12.87;;;17.70;99.90;;;;;;4923677;29;20464;-71
2021/08/28 10:50:08;;;;;;;13.83;12.40;;;17.60;99.90;;;;;;4923680;29;20534;-71
2021/08/28 10:52:38;;;;;;;10.23;9.40;;;17.60;99.90;;;;;;4938794;29;20424;-71
2021/08/28 10:55:09;;;;;;;14.73;13.40;;;17.50;99.90;;;;;;4937472;29;20795;-71
2021/08/28 10:57:40;;;;;;;3.30;2.78;;;17.50;99.90;;;;;;4936461;29;20956;-71
2021/08/28 11:00:10;;;;;;;7.90;7.37;;;17.60;99.90;;;;;;4934692;29;20212;-72
2021/08/28 11:02:57;;;;;;;3.65;2.90;;;17.60;99.90;;;;;;4936450;29;20516;-72
2021/08/28 11:05:28;;;;;;;7.97;7.30;;;17.60;99.90;;;;;;4937343;29;20192;-72
2021/08/28 11:07:58;;;;;;;6.83;6.33;;;17.60;99.90;;;;;;4937444;29;20439;-72
2021/08/28 11:10:27;;;;;;;11.37;10.30;;;17.60;99.90;;;;;;4937092;29;20451;-72
2021/08/28 11:13:00;;;;;;;10.93;10.13;;;17.50;99.90;;;;;;4936840;29;20504;-72
2021/08/28 11:15:44;;;;;;;14.90;11.77;;;17.50;99.90;;;;;;4934105;29;20475;-72
2021/08/28 11:18:16;;;;;;;11.60;10.43;;;17.50;99.90;;;;;;4907436;29;20435;-72
2021/08/28 11:20:45;;;;;;;11.70;9.53;;;17.50;99.90;;;;;;4918259;29;20447;-72
2021/08/28 11:23:16;;;;;;;13.87;12.70;;;17.50;99.90;;;;;;4918124;29;20435;-72
2021/08/28 11:25:46;;;;;;;7.43;6.83;;;17.40;99.90;;;;;;4922491;29;20448;-72
2021/08/28 11:28:19;;;;;;;10.38;9.68;;;17.40;99.90;;;;;;4936537;29;20445;-72
2021/08/28 11:30:56;;;;;;;10.80;9.63;;;17.50;99.90;;;;;;4918854;29;20210;-72
2021/08/28 11:33:29;;;;;;;10.93;10.10;;;17.50;99.90;;;;;;4936696;29;20487;-72
2021/08/28 11:36:00;;;;;;;10.10;9.27;;;17.50;99.90;;;;;;4920166;29;20814;-72
2021/08/28 11:38:48;;;;;;;11.43;10.60;;;17.50;99.90;;;;;;4936749;29;20403;-72
2021/08/28 11:41:20;;;;;;;14.30;12.80;;;17.50;99.90;;;;;;4919391;29;20471;-72
2021/08/28 11:43:51;;;;;;;12.87;11.93;;;17.50;99.90;;;;;;4936271;29;20528;-72
2021/08/28 11:46:23;;;;;;;13.13;11.97;;;17.50;99.90;;;;;;4919278;29;20450;-72
2021/08/28 11:48:52;;;;;;;21.23;19.33;;;17.50;99.90;;;;;;4936523;29;20426;-72
2021/08/28 11:51:22;;;;;;;15.17;13.93;;;17.50;99.90;;;;;;4936402;29;20431;-72
2021/08/28 11:53:53;;;;;;;16.60;15.07;;;17.50;99.90;;;;;;4936301;29;20446;-72
2021/08/28 11:56:22;;;;;;;12.73;11.83;;;17.50;99.90;;;;;;4936065;29;20413;-72
2021/08/28 11:59:00;;;;;;;16.10;14.83;;;17.50;99.90;;;;;;4918960;29;20474;-72
2021/08/28 12:01:34;;;;;;;6.15;5.55;;;17.50;99.90;;;;;;4931463;29;20444;-72
2021/08/28 12:04:05;;;;;;;10.43;9.63;;;17.60;99.90;;;;;;4904155;29;20600;-72
2021/08/28 12:06:36;;;;;;;8.60;7.90;;;17.60;99.90;;;;;;4936173;29;20444;-72
2021/08/28 12:09:08;;;;;;;9.67;8.83;;;17.60;99.90;;;;;;4936507;29;20456;-72
2021/08/28 12:11:37;;;;;;;11.30;10.60;;;17.60;99.90;;;;;;4935947;29;20933;-72
2021/08/28 12:14:10;;;;;;;14.87;13.80;;;17.50;99.90;;;;;;4936302;29;20470;-72
2021/08/28 12:16:39;;;;;;;9.17;8.33;;;17.50;99.90;;;;;;4935962;29;20514;-72
2021/08/28 12:19:10;;;;;;;16.10;14.60;;;17.50;99.90;;;;;;4936300;29;20536;-72
2021/08/28 12:21:39;;;;;;;14.43;13.40;;;17.40;99.90;;;;;;4918907;29;21008;-72
2021/08/28 12:24:17;;;;;;;11.83;10.83;;;17.40;99.90;;;;;;4935757;29;20908;-72
2021/08/28 12:26:49;;;;;;;15.67;14.30;;;17.40;99.90;;;;;;4936204;29;20447;-72
2021/08/28 12:29:27;;;;;;;15.13;13.80;;;17.40;99.90;;;;;;4935933;29;20424;-72
2021/08/28 12:32:00;;;;;;;16.37;13.73;;;17.40;99.90;;;;;;4935937;29;20891;-72
2021/08/28 12:34:31;;;;;;;7.10;6.40;;;17.30;99.90;;;;;;4917477;29;20952;-72
2021/08/28 12:37:00;;;;;;;8.07;7.37;;;17.50;99.90;;;;;;4935722;29;20203;-72
2021/08/28 12:39:29;;;;;;;7.07;6.43;;;17.50;99.90;;;;;;4917832;29;20528;-72
2021/08/28 12:41:58;;;;;;;10.10;9.20;;;17.50;99.90;;;;;;4935575;29;20995;-72
2021/08/28 12:44:30;;;;;;;8.93;8.23;;;17.50;99.90;;;;;;4939247;29;20886;-72
2021/08/28 12:47:00;;;;;;;9.43;8.63;;;17.40;99.90;;;;;;4939623;29;20518;-72
2021/08/28 12:49:29;;;;;;;8.50;7.80;;;17.40;99.90;;;;;;4938782;29;20587;-72
2021/08/28 12:52:01;;;;;;;10.23;9.33;;;17.40;99.90;;;;;;4939375;29;20418;-72
2021/08/28 12:54:33;;;;;;;13.43;12.53;;;17.40;99.90;;;;;;4938713;29;21007;-72
2021/08/28 12:57:05;;;;;;;9.30;8.70;;;17.40;99.90;;;;;;4939673;29;20504;-72
2021/08/28 12:59:41;;;;;;;8.60;8.00;;;17.40;99.90;;;;;;4939346;29;20401;-72
2021/08/28 13:02:17;;;;;;;9.70;8.80;;;17.40;99.90;;;;;;4939201;29;21010;-72